Terminal Aerodrome Forecast
Issued by NWS Nashville, TN

Home | Current Version | Previous Version | Text Only | Print | Product List | Glossary On
Versions: 1 2 3 4 5 6 7 8 9 10 11 12 13
000
FTUS44 KOHX 051134
TAFBNA
TAF
KBNA 051134Z 0512/0612 07003KT P6SM SCT150
     FM051500 09003KT P6SM VCTS BKN050CB BKN100
     FM051600 10005KT 6SM -TSRA BR BKN040CB OVC090
     FM052100 11005KT P6SM VCSH BKN040 OVC080
     FM060600 15004KT 5SM -SHRA BR VCTS BKN035CB OVC080=

USA.gov is the U.S. government's official web portal to all federal, state and local government web resources and services.